Time;durP1;ratioP1;P1;durP2;ratioP2;P2;SDS_P1;SDS_P2;PMS_P1;PMS_P2;Temp;Humidity;BMP_temperature;BMP_pressure;BME280_temperature;BME280_humidity;BME280_pressure;Samples;Min_cycle;Max_cycle;Signal;HPM_P1;HPM_P2
2022/01/09 00:01:41;;;;;;;42.37;6.47;;;8.10;99.90;;;;;;6240914;23;20173;-86
2022/01/09 00:04:07;;;;;;;40.90;6.97;;;8.10;99.90;;;;;;6241279;23;20169;-86
2022/01/09 00:06:36;;;;;;;36.87;6.50;;;8.10;99.90;;;;;;6211448;23;20189;-86
2022/01/09 00:09:03;;;;;;;34.73;6.67;;;8.10;99.90;;;;;;6207477;23;20174;-85
2022/01/09 00:11:29;;;;;;;37.13;7.10;;;8.10;99.90;;;;;;6210404;23;20169;-85
2022/01/09 00:13:57;;;;;;;38.83;6.73;;;8.10;99.90;;;;;;6212139;23;20206;-86
2022/01/09 00:16:24;;;;;;;28.80;7.53;;;8.10;99.90;;;;;;6211742;23;20189;-87
2022/01/09 00:18:52;;;;;;;45.17;9.53;;;8.10;99.90;;;;;;6211762;23;20343;-86
2022/01/09 00:21:19;;;;;;;43.17;6.70;;;8.10;99.90;;;;;;6211904;23;20173;-85
2022/01/09 00:23:47;;;;;;;34.03;6.97;;;8.10;99.90;;;;;;6211874;23;20166;-84
2022/01/09 00:26:14;;;;;;;30.20;7.43;;;8.10;99.90;;;;;;6211756;23;20170;-87
2022/01/09 00:28:42;;;;;;;31.73;6.23;;;8.00;99.90;;;;;;6211767;23;20178;-85
2022/01/09 00:31:09;;;;;;;31.33;5.87;;;8.00;99.90;;;;;;6211493;23;20173;-86
2022/01/09 00:33:36;;;;;;;31.90;5.60;;;8.00;99.90;;;;;;6210997;23;20194;-84
2022/01/09 00:36:03;;;;;;;28.70;6.70;;;8.10;99.90;;;;;;6211170;23;20166;-83
2022/01/09 00:38:30;;;;;;;31.40;6.27;;;8.10;99.90;;;;;;6209338;23;20170;-87
2022/01/09 00:40:58;;;;;;;33.47;5.77;;;8.00;99.90;;;;;;6207537;23;20184;-85
2022/01/09 00:43:25;;;;;;;28.60;6.50;;;8.10;99.90;;;;;;6207145;23;20190;-87
2022/01/09 00:45:52;;;;;;;33.23;7.07;;;8.00;99.90;;;;;;6206702;23;20174;-85
2022/01/09 00:48:19;;;;;;;28.93;6.47;;;8.00;99.90;;;;;;6209241;23;20173;-86
2022/01/09 00:50:46;;;;;;;26.97;6.53;;;8.00;99.90;;;;;;6208658;23;20192;-84
2022/01/09 00:53:12;;;;;;;27.20;6.23;;;8.00;99.90;;;;;;6208141;23;20194;-83
2022/01/09 00:55:39;;;;;;;31.37;5.93;;;8.00;99.90;;;;;;6208999;23;20177;-83
2022/01/09 00:58:07;;;;;;;27.47;6.87;;;8.00;99.90;;;;;;6208623;23;20178;-84
2022/01/09 01:00:39;;;;;;;29.20;6.43;;;8.00;99.90;;;;;;6206138;23;20170;-83
2022/01/09 01:03:06;;;;;;;21.03;5.70;;;8.00;99.90;;;;;;6207267;23;20626;-85
2022/01/09 01:05:33;;;;;;;26.17;5.73;;;8.00;99.90;;;;;;6207323;23;20194;-83
2022/01/09 01:07:59;;;;;;;26.97;5.37;;;8.00;99.90;;;;;;6209386;23;20170;-84
2022/01/09 01:10:26;;;;;;;24.87;5.33;;;8.00;99.90;;;;;;6210227;23;20173;-85
2022/01/09 01:12:53;;;;;;;32.47;6.13;;;8.00;99.90;;;;;;6209982;23;20205;-84
2022/01/09 01:15:22;;;;;;;22.37;5.40;;;8.00;99.90;;;;;;6210434;23;20544;-83
2022/01/09 01:17:49;;;;;;;32.27;6.00;;;8.00;99.90;;;;;;6210380;23;20170;-84
2022/01/09 01:20:20;;;;;;;37.23;8.33;;;8.00;99.90;;;;;;6209697;23;20177;-82
2022/01/09 01:22:47;;;;;;;26.93;5.20;;;8.00;99.90;;;;;;6210006;23;20170;-83
2022/01/09 01:25:14;;;;;;;26.43;6.57;;;8.00;99.90;;;;;;6211525;23;20239;-82
2022/01/09 01:27:42;;;;;;;38.47;6.23;;;8.00;99.90;;;;;;6209672;23;20508;-84
2022/01/09 01:30:10;;;;;;;28.03;7.13;;;8.00;99.90;;;;;;6210207;23;20911;-83
2022/01/09 01:32:39;;;;;;;30.57;6.57;;;8.00;99.90;;;;;;6209654;23;20207;-83
2022/01/09 01:35:06;;;;;;;31.20;7.27;;;8.00;99.90;;;;;;6210841;23;20174;-84
2022/01/09 01:37:33;;;;;;;30.07;5.87;;;8.00;99.90;;;;;;6209945;23;20449;-84
2022/01/09 01:40:00;;;;;;;24.53;5.03;;;8.00;99.90;;;;;;6209032;23;20178;-84
2022/01/09 01:42:26;;;;;;;37.00;5.50;;;8.00;99.90;;;;;;6207972;23;20174;-85
2022/01/09 01:44:53;;;;;;;27.90;6.10;;;8.00;99.90;;;;;;6210953;23;20178;-87
2022/01/09 01:47:21;;;;;;;23.90;5.97;;;8.00;99.90;;;;;;6211213;23;20174;-87
2022/01/09 01:49:50;;;;;;;20.33;4.77;;;7.90;99.90;;;;;;6212042;23;20166;-85
2022/01/09 01:52:25;;;;;;;24.73;5.63;;;7.90;99.90;;;;;;6211892;23;20166;-83
2022/01/09 01:54:52;;;;;;;26.70;6.10;;;7.90;99.90;;;;;;6212582;23;20527;-84
2022/01/09 01:57:20;;;;;;;28.83;6.67;;;7.90;99.90;;;;;;6211456;23;20177;-82
2022/01/09 01:59:46;;;;;;;26.07;5.80;;;7.90;99.90;;;;;;6211798;23;20170;-82
2022/01/09 02:02:13;;;;;;;23.03;5.27;;;7.90;99.90;;;;;;6211413;23;20706;-83
2022/01/09 02:04:40;;;;;;;30.93;5.77;;;8.00;99.90;;;;;;6212061;23;20186;-83
2022/01/09 02:07:09;;;;;;;24.03;6.53;;;8.00;99.90;;;;;;6212732;23;20178;-86
2022/01/09 02:09:35;;;;;;;27.30;5.50;;;7.90;99.90;;;;;;6210555;23;20170;-82
2022/01/09 02:12:02;;;;;;;26.90;5.57;;;7.90;99.90;;;;;;6211969;23;20174;-84
2022/01/09 02:14:29;;;;;;;30.40;5.33;;;7.90;99.90;;;;;;6211409;23;20213;-85
2022/01/09 02:16:56;;;;;;;20.63;4.47;;;7.90;99.90;;;;;;6211407;23;20271;-86
2022/01/09 02:19:23;;;;;;;17.83;3.90;;;7.80;99.90;;;;;;6212143;23;20170;-81
2022/01/09 02:21:51;;;;;;;7.87;2.53;;;7.70;99.90;;;;;;6212533;23;20181;-85
2022/01/09 02:24:22;;;;;;;12.33;2.17;;;7.60;99.90;;;;;;6212817;23;20167;-85
2022/01/09 02:26:50;;;;;;;16.67;3.03;;;7.40;99.90;;;;;;6213344;23;20173;-85
2022/01/09 02:29:16;;;;;;;27.40;5.50;;;7.30;99.90;;;;;;6212762;23;20173;-85
2022/01/09 02:31:44;;;;;;;24.97;5.47;;;7.30;99.90;;;;;;6212162;23;20622;-86
2022/01/09 02:34:11;;;;;;;22.57;4.93;;;7.30;99.90;;;;;;6212213;23;20200;-85
2022/01/09 02:36:38;;;;;;;24.77;5.53;;;7.30;99.90;;;;;;6212495;23;20177;-83
2022/01/09 02:39:06;;;;;;;22.00;4.80;;;7.30;99.90;;;;;;6212718;23;20734;-84
2022/01/09 02:41:34;;;;;;;25.30;4.73;;;7.40;99.90;;;;;;6212589;23;20189;-87
2022/01/09 02:44:08;;;;;;;31.07;6.63;;;7.40;99.90;;;;;;6213429;23;20178;-86
2022/01/09 02:46:45;;;;;;;23.27;4.70;;;7.40;99.90;;;;;;6211823;23;20170;-85
2022/01/09 02:49:11;;;;;;;23.27;5.60;;;7.40;99.90;;;;;;6212378;23;20177;-83
2022/01/09 02:51:39;;;;;;;27.07;4.73;;;7.40;99.90;;;;;;6211604;23;20177;-84
2022/01/09 02:55:05;;;;;;;16.57;3.87;;;7.40;99.90;;;;;;6211716;23;20579;-83
2022/01/09 02:57:00;;;;;;;22.07;5.03;;;7.40;99.90;;;;;;6211962;23;20257;-82
2022/01/09 02:59:27;;;;;;;15.73;3.30;;;7.40;99.90;;;;;;6211762;23;20185;-85
2022/01/09 03:01:54;;;;;;;18.23;3.83;;;7.40;99.90;;;;;;6211776;23;20167;-83
2022/01/09 03:04:23;;;;;;;16.77;3.93;;;7.40;99.90;;;;;;6211877;23;20172;-82
2022/01/09 03:06:50;;;;;;;26.97;5.93;;;7.40;99.90;;;;;;6211216;23;20174;-85
2022/01/09 03:09:19;;;;;;;23.20;4.30;;;7.40;99.90;;;;;;6211478;23;20181;-85
2022/01/09 03:11:47;;;;;;;23.27;4.47;;;7.40;99.90;;;;;;6209891;23;20174;-86
2022/01/09 03:14:14;;;;;;;19.80;4.10;;;7.50;99.90;;;;;;6207756;23;20304;-81
2022/01/09 03:16:41;;;;;;;22.53;5.30;;;7.50;99.90;;;;;;6212017;23;20605;-83
2022/01/09 03:19:08;;;;;;;22.23;4.43;;;7.50;99.90;;;;;;6213218;23;20178;-85
2022/01/09 03:21:34;;;;;;;20.70;4.00;;;7.40;99.90;;;;;;6212328;23;20189;-85
2022/01/09 03:24:01;;;;;;;12.77;3.83;;;7.40;99.90;;;;;;6212266;23;20166;-84
2022/01/09 03:26:29;;;;;;;22.00;4.03;;;7.40;99.90;;;;;;6212250;23;20177;-84
2022/01/09 03:28:56;;;;;;;17.90;4.13;;;7.40;99.90;;;;;;6211386;23;20170;-85
2022/01/09 03:31:23;;;;;;;18.57;3.67;;;7.40;99.90;;;;;;6211262;23;20170;-86
2022/01/09 03:33:50;;;;;;;9.40;3.33;;;7.40;99.90;;;;;;6210734;23;20462;-86
2022/01/09 03:36:17;;;;;;;21.47;5.53;;;7.40;99.90;;;;;;6212926;23;20170;-88
2022/01/09 03:38:43;;;;;;;18.03;3.60;;;7.40;99.90;;;;;;6212796;23;20174;-81
2022/01/09 03:41:10;;;;;;;16.77;3.30;;;7.40;99.90;;;;;;6212629;23;20166;-85
2022/01/09 03:43:39;;;;;;;17.50;3.90;;;7.40;99.90;;;;;;6212135;23;20192;-85
2022/01/09 03:46:06;;;;;;;19.17;4.40;;;7.40;99.90;;;;;;6211950;23;20226;-84
2022/01/09 03:48:32;;;;;;;20.47;4.00;;;7.40;99.90;;;;;;6211633;23;20178;-86
2022/01/09 03:51:01;;;;;;;17.80;3.87;;;7.40;99.90;;;;;;6211195;23;20173;-84
2022/01/09 03:53:30;;;;;;;15.60;3.53;;;7.40;99.90;;;;;;6211021;23;20292;-83
2022/01/09 03:55:57;;;;;;;19.60;4.07;;;7.40;99.90;;;;;;6211773;23;20664;-84
2022/01/09 03:58:24;;;;;;;30.37;4.43;;;7.40;99.90;;;;;;6210855;23;20191;-86
2022/01/09 04:00:52;;;;;;;27.70;5.03;;;7.40;99.90;;;;;;6211773;23;20177;-85
2022/01/09 04:03:19;;;;;;;20.10;4.03;;;7.40;99.90;;;;;;6210626;23;20181;-84
2022/01/09 04:05:45;;;;;;;21.53;4.33;;;7.40;99.90;;;;;;6210461;23;20193;-86
2022/01/09 04:08:12;;;;;;;15.03;4.30;;;7.40;99.90;;;;;;6211400;23;20575;-84
2022/01/09 04:10:42;;;;;;;20.37;3.63;;;7.40;99.90;;;;;;6210417;23;20167;-85
2022/01/09 04:13:09;;;;;;;18.43;3.73;;;7.40;99.90;;;;;;6211757;23;20378;-85
2022/01/09 04:15:35;;;;;;;17.10;4.33;;;7.40;99.90;;;;;;6211086;23;20170;-85
2022/01/09 04:18:03;;;;;;;21.63;4.53;;;7.40;99.90;;;;;;6210686;23;20193;-83
2022/01/09 04:20:32;;;;;;;20.97;5.10;;;7.40;99.90;;;;;;6211289;23;20173;-85
2022/01/09 04:23:00;;;;;;;20.23;4.63;;;7.40;99.90;;;;;;6211184;23;20166;-83
2022/01/09 04:25:27;;;;;;;19.70;4.50;;;7.40;99.90;;;;;;6211824;23;20174;-84
2022/01/09 04:27:55;;;;;;;15.73;4.17;;;7.40;99.90;;;;;;6211403;23;20181;-85
2022/01/09 04:30:21;;;;;;;20.07;4.50;;;7.40;99.90;;;;;;6210924;23;20174;-85
2022/01/09 04:32:48;;;;;;;21.37;3.80;;;7.40;99.90;;;;;;6211053;23;20181;-83
2022/01/09 04:35:16;;;;;;;19.07;3.63;;;7.40;99.90;;;;;;6210598;23;20220;-86
2022/01/09 04:37:44;;;;;;;21.93;3.90;;;7.40;99.90;;;;;;6210959;23;20177;-82
2022/01/09 04:40:14;;;;;;;13.03;4.07;;;7.40;99.90;;;;;;6210780;23;20574;-86
2022/01/09 04:42:44;;;;;;;17.03;3.53;;;7.40;99.90;;;;;;6211056;23;20174;-86
2022/01/09 04:45:13;;;;;;;20.20;3.10;;;7.40;99.90;;;;;;6207810;23;20170;-85
2022/01/09 04:47:43;;;;;;;20.03;3.57;;;7.40;99.90;;;;;;6208787;23;20170;-85
2022/01/09 04:50:14;;;;;;;17.13;3.57;;;7.40;99.90;;;;;;6211354;23;20173;-84
2022/01/09 04:52:43;;;;;;;15.07;4.07;;;7.40;99.90;;;;;;6211299;23;20249;-88
2022/01/09 04:55:10;;;;;;;15.73;3.20;;;7.40;99.90;;;;;;6211465;23;20190;-86
2022/01/09 04:57:37;;;;;;;17.67;4.47;;;7.30;99.90;;;;;;6212215;23;20447;-86
2022/01/09 05:00:05;;;;;;;21.97;4.30;;;7.30;99.90;;;;;;6211630;23;20189;-85
2022/01/09 05:02:32;;;;;;;13.17;2.80;;;7.30;99.90;;;;;;6211105;23;20177;-87
2022/01/09 05:04:59;;;;;;;7.37;2.50;;;7.20;99.90;;;;;;6211844;23;20189;-87
2022/01/09 05:07:26;;;;;;;14.40;3.20;;;7.20;99.90;;;;;;6211501;23;20170;-86
2022/01/09 05:09:54;;;;;;;11.70;3.10;;;7.10;99.90;;;;;;6212401;23;20185;-86
2022/01/09 05:12:21;;;;;;;17.20;3.63;;;7.00;99.90;;;;;;6211116;23;20237;-86
2022/01/09 05:14:48;;;;;;;17.80;4.67;;;7.00;99.90;;;;;;6211759;23;20202;-85
2022/01/09 05:17:14;;;;;;;18.47;3.40;;;7.00;99.90;;;;;;6212052;23;20185;-87
2022/01/09 05:19:42;;;;;;;17.77;3.93;;;6.90;99.90;;;;;;6211465;23;20193;-86
2022/01/09 05:22:09;;;;;;;21.13;3.80;;;7.00;99.90;;;;;;6212523;23;20205;-86
2022/01/09 05:24:36;;;;;;;14.43;3.53;;;7.00;99.90;;;;;;6214353;23;20181;-88
2022/01/09 05:27:05;;;;;;;17.77;4.30;;;7.10;99.90;;;;;;6214204;23;20181;-89
2022/01/09 05:29:32;;;;;;;14.27;4.43;;;7.10;99.90;;;;;;6213431;23;20197;-84
2022/01/09 05:31:58;;;;;;;10.90;3.03;;;7.10;99.90;;;;;;6213047;23;20174;-85
2022/01/09 05:34:25;;;;;;;20.00;4.33;;;7.10;99.90;;;;;;6211728;23;20201;-83
2022/01/09 05:36:52;;;;;;;19.37;4.37;;;7.10;99.90;;;;;;6213733;23;20173;-85
2022/01/09 05:39:19;;;;;;;17.03;3.93;;;7.20;99.90;;;;;;6213736;23;20535;-85
2022/01/09 05:41:47;;;;;;;16.73;3.50;;;7.20;99.90;;;;;;6213707;23;20491;-82
2022/01/09 05:44:17;;;;;;;18.97;4.03;;;7.10;99.90;;;;;;6214152;23;20170;-87
2022/01/09 05:46:44;;;;;;;12.93;3.50;;;7.10;99.90;;;;;;6213015;23;20170;-87
2022/01/09 05:49:11;;;;;;;21.57;4.53;;;7.10;99.90;;;;;;6213496;23;20181;-88
2022/01/09 05:51:38;;;;;;;15.33;4.13;;;7.10;99.90;;;;;;6213603;23;20220;-85
2022/01/09 05:54:05;;;;;;;15.63;3.83;;;7.10;99.90;;;;;;6212828;23;20193;-87
2022/01/09 05:56:32;;;;;;;21.37;3.93;;;7.10;99.90;;;;;;6212757;23;20185;-86
2022/01/09 05:58:59;;;;;;;19.87;3.73;;;7.10;99.90;;;;;;6213504;23;20183;-84
2022/01/09 06:01:27;;;;;;;16.97;4.70;;;7.10;99.90;;;;;;6213591;23;20181;-86
2022/01/09 06:03:54;;;;;;;8.73;3.10;;;7.00;99.90;;;;;;6214005;23;20174;-83
2022/01/09 06:06:21;;;;;;;20.33;3.30;;;7.00;99.90;;;;;;6212636;23;20198;-85
2022/01/09 06:08:48;;;;;;;16.77;3.20;;;7.00;99.90;;;;;;6212596;23;20166;-88
2022/01/09 06:11:14;;;;;;;12.53;3.40;;;7.00;99.90;;;;;;6213320;23;20438;-87
2022/01/09 06:13:41;;;;;;;11.10;3.03;;;7.00;99.90;;;;;;6212198;23;20213;-84
2022/01/09 06:16:08;;;;;;;15.17;3.13;;;7.00;99.90;;;;;;6212726;23;20174;-84
2022/01/09 06:18:36;;;;;;;18.30;3.47;;;6.90;99.90;;;;;;6207716;23;20209;-85
2022/01/09 06:21:03;;;;;;;17.07;3.83;;;6.90;99.90;;;;;;6211535;23;20181;-84
2022/01/09 06:23:30;;;;;;;13.43;3.50;;;7.00;99.90;;;;;;6213029;23;20468;-86
2022/01/09 06:25:57;;;;;;;11.20;3.20;;;6.90;99.90;;;;;;6212896;23;20174;-87
2022/01/09 06:28:24;;;;;;;17.13;4.03;;;6.90;99.90;;;;;;6212794;23;20170;-87
2022/01/09 06:30:51;;;;;;;17.53;3.37;;;6.80;99.90;;;;;;6213079;23;20201;-85
2022/01/09 06:33:18;;;;;;;22.03;4.10;;;6.80;99.90;;;;;;6212561;23;20170;-85
2022/01/09 06:35:46;;;;;;;19.40;4.30;;;6.80;99.90;;;;;;6213595;23;20201;-87
2022/01/09 06:38:13;;;;;;;21.60;3.80;;;6.90;99.90;;;;;;6212917;23;20170;-81
2022/01/09 06:40:40;;;;;;;17.13;4.40;;;6.90;99.90;;;;;;6212798;23;20501;-84
2022/01/09 06:43:08;;;;;;;19.13;3.30;;;7.00;99.90;;;;;;6212827;23;20458;-85
2022/01/09 06:45:34;;;;;;;13.07;4.03;;;7.00;99.90;;;;;;6213258;23;20166;-85
2022/01/09 06:48:02;;;;;;;14.87;3.17;;;7.00;99.90;;;;;;6212896;23;20177;-86
2022/01/09 06:50:29;;;;;;;15.97;3.87;;;7.00;99.90;;;;;;6212736;23;20174;-84
2022/01/09 06:52:57;;;;;;;14.60;2.80;;;7.00;99.90;;;;;;6212496;23;20176;-87
2022/01/09 06:55:24;;;;;;;9.40;2.27;;;6.90;99.90;;;;;;6211949;23;20936;-86
2022/01/09 06:57:51;;;;;;;8.53;2.43;;;6.90;99.90;;;;;;6212332;23;20189;-87
2022/01/09 07:00:18;;;;;;;14.30;3.20;;;6.90;99.90;;;;;;6212141;23;20178;-88
2022/01/09 07:02:45;;;;;;;15.40;3.07;;;6.90;99.90;;;;;;6211880;23;20174;-87
2022/01/09 07:05:12;;;;;;;12.30;3.20;;;6.90;99.90;;;;;;6199524;23;20894;-86
2022/01/09 07:07:39;;;;;;;7.73;2.90;;;7.00;99.90;;;;;;6181247;23;20167;-87
2022/01/09 07:10:08;;;;;;;15.83;3.63;;;7.00;99.90;;;;;;6182715;23;20166;-88
2022/01/09 07:12:35;;;;;;;14.63;3.27;;;7.00;99.90;;;;;;6182165;23;20185;-87
2022/01/09 07:15:03;;;;;;;12.63;3.10;;;7.10;99.90;;;;;;6182609;23;20198;-88
2022/01/09 07:17:29;;;;;;;14.17;3.47;;;7.10;99.90;;;;;;6182570;23;20197;-84
2022/01/09 07:19:56;;;;;;;9.53;3.07;;;7.10;99.90;;;;;;6181850;23;20178;-85
2022/01/09 07:22:23;;;;;;;18.40;3.70;;;7.20;99.90;;;;;;6182043;23;20164;-84
2022/01/09 07:24:50;;;;;;;15.87;3.43;;;7.20;99.90;;;;;;6182068;23;20170;-84
2022/01/09 07:27:18;;;;;;;15.13;3.00;;;7.20;99.90;;;;;;6182058;23;20562;-87
2022/01/09 07:29:45;;;;;;;16.30;3.53;;;7.10;99.90;;;;;;6181930;23;20175;-86
2022/01/09 07:32:12;;;;;;;11.07;3.10;;;7.10;99.90;;;;;;6182646;23;20197;-85
2022/01/09 07:34:39;;;;;;;10.80;2.40;;;7.00;99.90;;;;;;6181129;23;20237;-86
2022/01/09 07:37:06;;;;;;;11.73;2.30;;;6.90;99.90;;;;;;6181322;23;20500;-84
2022/01/09 07:39:33;;;;;;;13.00;2.80;;;6.90;99.90;;;;;;6181133;23;20205;-87
2022/01/09 07:42:00;;;;;;;10.17;2.23;;;6.80;99.90;;;;;;6181594;23;20709;-84
2022/01/09 07:44:28;;;;;;;14.77;3.73;;;6.70;99.90;;;;;;6182003;23;20556;-84
2022/01/09 07:46:55;;;;;;;11.83;3.37;;;6.70;99.90;;;;;;6180958;23;20175;-85
2022/01/09 07:49:23;;;;;;;9.90;2.73;;;6.70;99.90;;;;;;6180876;23;20174;-86
2022/01/09 07:51:50;;;;;;;13.23;3.53;;;6.70;99.90;;;;;;6177752;23;20174;-83
2022/01/09 07:54:17;;;;;;;14.83;4.53;;;6.70;99.90;;;;;;6181618;23;20178;-84
2022/01/09 07:56:44;;;;;;;15.83;3.30;;;6.70;99.90;;;;;;6182062;23;20174;-88
2022/01/09 07:59:11;;;;;;;16.07;3.07;;;6.70;99.90;;;;;;6182903;23;20186;-83
2022/01/09 08:01:39;;;;;;;11.77;3.10;;;6.70;99.90;;;;;;6182265;23;20178;-86
2022/01/09 08:04:06;;;;;;;14.30;3.77;;;6.70;99.90;;;;;;6182720;23;20179;-87
2022/01/09 08:06:53;;;;;;;9.93;2.53;;;6.70;99.90;;;;;;6176865;23;20195;-87
2022/01/09 08:09:21;;;;;;;15.80;3.00;;;6.60;99.90;;;;;;6167951;23;20170;-89
2022/01/09 08:11:48;;;;;;;17.43;3.90;;;6.60;99.90;;;;;;6182922;23;20175;-86
2022/01/09 08:14:15;;;;;;;13.63;3.30;;;6.70;99.90;;;;;;6182957;23;20178;-89
2022/01/09 08:16:44;;;;;;;16.83;3.17;;;6.80;99.90;;;;;;6182360;23;20171;-90
2022/01/09 08:19:10;;;;;;;20.13;4.57;;;6.80;99.90;;;;;;6182263;23;20216;-89
2022/01/09 08:21:37;;;;;;;18.27;4.53;;;6.80;99.90;;;;;;6182466;23;20556;-85
2022/01/09 08:24:05;;;;;;;18.70;4.07;;;6.80;99.90;;;;;;6181806;23;20181;-89
2022/01/09 08:26:31;;;;;;;24.97;3.30;;;6.90;99.90;;;;;;6183394;23;20167;-91
2022/01/09 08:28:58;;;;;;;21.00;3.93;;;6.90;99.90;;;;;;6183108;23;20173;-86
2022/01/09 08:31:25;;;;;;;16.77;3.43;;;7.00;99.90;;;;;;6183878;23;20176;-83
2022/01/09 08:33:53;;;;;;;16.13;3.63;;;7.00;99.90;;;;;;6184410;23;20181;-88
2022/01/09 08:36:20;;;;;;;15.77;3.10;;;7.00;99.90;;;;;;6183137;23;20602;-87
2022/01/09 08:38:48;;;;;;;15.33;3.00;;;6.90;99.90;;;;;;6182465;23;20171;-93
2022/01/09 08:41:15;;;;;;;18.67;3.80;;;7.00;99.90;;;;;;6181911;23;20175;-89
2022/01/09 08:43:42;;;;;;;18.60;4.33;;;7.00;99.90;;;;;;6182732;23;20174;-88
2022/01/09 08:46:09;;;;;;;23.60;4.77;;;7.00;99.90;;;;;;6181978;23;20178;-85
2022/01/09 08:48:36;;;;;;;22.73;3.40;;;7.00;99.90;;;;;;6182003;23;20233;-86
2022/01/09 08:51:06;;;;;;;16.30;3.60;;;7.10;99.90;;;;;;6180986;23;20178;-83
2022/01/09 08:53:35;;;;;;;20.63;4.00;;;7.20;99.90;;;;;;6183795;23;20430;-86
2022/01/09 08:56:02;;;;;;;16.27;3.73;;;7.20;99.90;;;;;;6179019;23;20202;-83
2022/01/09 08:58:30;;;;;;;18.07;3.97;;;7.20;99.90;;;;;;6179071;23;20175;-89
2022/01/09 09:00:56;;;;;;;16.13;3.73;;;7.30;99.90;;;;;;6179734;23;20167;-87
2022/01/09 09:03:24;;;;;;;14.27;3.13;;;7.30;99.90;;;;;;6181602;23;20174;-84
2022/01/09 09:05:50;;;;;;;15.53;2.97;;;7.30;99.90;;;;;;6179924;23;20209;-82
2022/01/09 09:08:19;;;;;;;12.33;3.17;;;7.30;99.90;;;;;;6179585;23;20174;-82
2022/01/09 09:10:47;;;;;;;12.77;2.70;;;7.30;99.90;;;;;;6180143;23;20183;-84
2022/01/09 09:13:14;;;;;;;17.27;4.07;;;7.30;99.90;;;;;;6178730;23;20225;-83
2022/01/09 09:15:41;;;;;;;14.07;3.67;;;7.40;99.90;;;;;;6179054;23;20198;-82
2022/01/09 09:18:08;;;;;;;15.50;4.73;;;7.50;99.90;;;;;;6178143;23;20210;-84
2022/01/09 09:20:34;;;;;;;15.47;3.60;;;7.40;99.90;;;;;;6177607;23;20170;-84
2022/01/09 09:23:01;;;;;;;18.30;3.43;;;7.50;99.90;;;;;;6181813;23;20210;-82
2022/01/09 09:25:29;;;;;;;19.57;4.20;;;7.50;99.90;;;;;;6182641;23;20385;-83
2022/01/09 09:27:56;;;;;;;16.83;3.67;;;7.60;99.90;;;;;;6180679;23;20170;-81
2022/01/09 09:30:23;;;;;;;20.37;3.93;;;7.60;99.90;;;;;;6182552;23;20178;-84
2022/01/09 09:32:50;;;;;;;15.83;3.47;;;7.60;99.90;;;;;;6183238;23;20548;-86
2022/01/09 09:35:16;;;;;;;15.27;3.43;;;7.60;99.90;;;;;;6182716;23;20750;-86
2022/01/09 09:37:44;;;;;;;17.40;3.40;;;7.50;99.90;;;;;;6182278;23;20178;-86
2022/01/09 09:40:12;;;;;;;14.17;3.90;;;7.30;99.90;;;;;;6183787;23;20199;-86
2022/01/09 09:42:40;;;;;;;14.63;3.80;;;7.30;99.90;;;;;;6183296;23;20447;-85
2022/01/09 09:45:10;;;;;;;13.97;4.20;;;7.20;99.90;;;;;;6183657;23;20182;-85
2022/01/09 09:47:38;;;;;;;24.60;5.37;;;7.20;99.90;;;;;;6183123;23;20181;-85
2022/01/09 09:50:07;;;;;;;19.93;4.53;;;7.20;99.90;;;;;;6184355;23;20178;-84
2022/01/09 09:52:34;;;;;;;22.40;4.60;;;7.20;99.90;;;;;;6183328;23;20181;-85
2022/01/09 09:55:02;;;;;;;16.87;4.07;;;7.20;99.90;;;;;;6183460;23;20178;-82
2022/01/09 09:57:29;;;;;;;21.87;4.37;;;7.30;99.90;;;;;;6181833;23;20175;-82
2022/01/09 10:00:07;;;;;;;18.30;4.07;;;7.30;99.90;;;;;;6181864;23;20178;-83
2022/01/09 10:02:45;;;;;;;20.10;4.80;;;7.40;99.90;;;;;;6182510;23;20206;-84
2022/01/09 10:05:15;;;;;;;15.57;3.90;;;7.50;99.90;;;;;;6182033;23;20782;-88
2022/01/09 10:07:42;;;;;;;23.00;4.47;;;7.50;99.90;;;;;;6180714;23;20177;-82
2022/01/09 10:10:11;;;;;;;24.37;4.40;;;7.60;99.90;;;;;;6181071;23;20187;-82
2022/01/09 10:12:38;;;;;;;27.23;6.40;;;7.60;99.90;;;;;;6181146;23;20175;-83
2022/01/09 10:15:09;;;;;;;18.33;3.90;;;7.70;99.90;;;;;;6180140;23;20175;-81
2022/01/09 10:17:43;;;;;;;20.60;3.67;;;7.70;99.90;;;;;;6180332;23;20182;-82
2022/01/09 10:20:13;;;;;;;20.27;4.17;;;7.70;99.90;;;;;;6181428;23;20432;-85
2022/01/09 10:22:43;;;;;;;20.37;4.83;;;7.70;99.90;;;;;;6181554;23;20171;-85
2022/01/09 10:25:26;;;;;;;19.97;4.13;;;7.70;99.90;;;;;;6181210;23;20609;-82
2022/01/09 10:28:01;;;;;;;18.70;4.87;;;7.70;99.90;;;;;;6180579;23;20174;-82
2022/01/09 10:30:31;;;;;;;22.20;4.67;;;7.70;99.90;;;;;;6180352;23;20173;-82
2022/01/09 10:33:00;;;;;;;16.77;4.67;;;7.70;99.90;;;;;;6179317;23;20174;-84
2022/01/09 10:35:28;;;;;;;17.83;4.43;;;7.70;99.90;;;;;;6179968;23;20191;-83
2022/01/09 10:38:13;;;;;;;15.30;3.90;;;7.70;99.90;;;;;;6180541;23;20182;-83
2022/01/09 10:40:42;;;;;;;13.53;4.00;;;7.70;99.90;;;;;;6177767;23;20233;-82
2022/01/09 10:43:11;;;;;;;12.43;4.07;;;7.70;99.90;;;;;;6179403;23;20193;-84
2022/01/09 10:45:41;;;;;;;18.40;4.50;;;7.60;99.90;;;;;;6179789;23;20919;-82
2022/01/09 10:48:11;;;;;;;15.30;3.10;;;7.40;99.90;;;;;;6179315;23;20187;-81
2022/01/09 10:50:41;;;;;;;10.00;3.03;;;7.30;99.90;;;;;;6178836;23;20183;-85
2022/01/09 10:53:20;;;;;;;12.80;3.80;;;7.20;99.90;;;;;;6179951;23;20175;-83
2022/01/09 10:55:48;;;;;;;7.73;3.27;;;7.20;99.90;;;;;;6176865;23;20663;-83
2022/01/09 10:58:20;;;;;;;13.57;2.77;;;7.10;99.90;;;;;;6177440;23;20571;-82
2022/01/09 11:01:06;;;;;;;11.40;2.53;;;7.10;99.90;;;;;;6179041;23;20179;-82
2022/01/09 11:03:32;;;;;;;11.40;2.63;;;7.00;99.90;;;;;;6178217;23;20183;-81
2022/01/09 11:06:01;;;;;;;13.53;2.93;;;7.10;99.90;;;;;;6178489;23;20902;-83
2022/01/09 11:08:29;;;;;;;9.93;3.07;;;7.10;99.90;;;;;;6177579;23;20171;-81
2022/01/09 11:10:57;;;;;;;13.57;3.30;;;7.10;99.90;;;;;;6177585;23;20182;-82
2022/01/09 11:13:25;;;;;;;11.83;3.17;;;7.20;99.90;;;;;;6177473;23;20175;-81
2022/01/09 11:18:43;;;;;;;17.63;4.07;;;7.20;99.90;;;;;;6178726;23;20741;-82
2022/01/09 11:21:10;;;;;;;14.00;3.23;;;7.20;99.90;;;;;;6176961;23;20174;-82
2022/01/09 11:23:45;;;;;;;18.27;4.20;;;7.10;99.90;;;;;;6180197;23;20670;-81
2022/01/09 11:26:15;;;;;;;18.57;3.60;;;7.10;99.90;;;;;;6179255;23;20206;-82
2022/01/09 11:28:44;;;;;;;16.10;3.33;;;7.10;99.90;;;;;;6177523;23;20175;-82
2022/01/09 11:31:23;;;;;;;25.13;5.97;;;7.20;99.90;;;;;;6179120;23;20174;-83
2022/01/09 11:33:59;;;;;;;17.77;4.37;;;7.20;99.90;;;;;;6179643;23;20186;-89
2022/01/09 11:36:35;;;;;;;18.47;5.73;;;7.30;99.90;;;;;;6181441;23;20463;-84
2022/01/09 11:39:11;;;;;;;25.47;4.73;;;7.30;99.90;;;;;;6180893;23;20166;-83
2022/01/09 11:41:40;;;;;;;21.73;4.40;;;7.30;99.90;;;;;;6179113;23;20194;-83
2022/01/09 11:44:09;;;;;;;19.63;5.30;;;7.40;99.90;;;;;;6180343;23;20234;-83
2022/01/09 11:47:06;;;;;;;23.13;4.60;;;7.40;99.90;;;;;;6179851;23;20174;-85
2022/01/09 11:49:39;;;;;;;20.73;4.77;;;7.50;99.90;;;;;;6163163;23;20171;-89
2022/01/09 11:52:08;;;;;;;17.00;3.37;;;7.50;99.90;;;;;;6180847;23;20490;-82
2022/01/09 11:54:51;;;;;;;9.27;2.90;;;7.50;99.90;;;;;;6179253;23;20214;-86
2022/01/09 11:57:36;;;;;;;13.60;3.33;;;7.40;99.90;;;;;;6178001;23;20194;-85
2022/01/09 12:00:05;;;;;;;9.53;2.57;;;7.40;99.90;;;;;;6177998;23;20162;-82
2022/01/09 12:02:37;;;;;;;18.53;2.90;;;7.30;99.90;;;;;;6178686;23;20167;-82
2022/01/09 12:05:06;;;;;;;11.37;2.93;;;7.30;99.90;;;;;;6179201;23;20273;-84
2022/01/09 12:08:06;;;;;;;10.63;2.70;;;7.20;99.90;;;;;;6178738;23;20167;-82
2022/01/09 12:10:51;;;;;;;12.07;2.50;;;7.10;99.90;;;;;;6178426;23;20175;-82
2022/01/09 12:13:43;;;;;;;10.50;3.00;;;7.10;99.90;;;;;;6179223;23;20639;-80
2022/01/09 12:16:31;;;;;;;17.47;3.60;;;7.10;99.90;;;;;;6179449;23;20818;-82
2022/01/09 12:18:59;;;;;;;15.93;3.20;;;7.10;99.90;;;;;;6179539;23;20206;-83
2022/01/09 12:21:50;;;;;;;13.27;3.87;;;7.10;99.90;;;;;;6179081;23;20181;-84
2022/01/09 12:24:36;;;;;;;18.53;3.20;;;7.20;99.90;;;;;;6178761;23;20500;-87
2022/01/09 12:27:43;;;;;;;11.73;2.70;;;7.20;99.90;;;;;;6179560;23;20171;-83
2022/01/09 12:30:32;;;;;;;11.93;3.87;;;7.30;99.90;;;;;;6178321;23;20528;-83
2022/01/09 12:33:01;;;;;;;14.57;3.77;;;7.30;99.90;;;;;;6180101;23;20279;-90
2022/01/09 12:35:28;;;;;;;18.57;5.27;;;7.30;99.90;;;;;;6181582;23;20167;-89
2022/01/09 12:37:58;;;;;;;22.27;5.33;;;7.40;99.90;;;;;;6182574;23;20213;-91
2022/01/09 12:40:26;;;;;;;14.27;3.67;;;7.40;99.90;;;;;;6181787;23;20202;-88
2022/01/09 12:42:56;;;;;;;19.80;5.37;;;7.40;99.90;;;;;;6181142;23;20178;-89
2022/01/09 12:45:25;;;;;;;28.57;4.80;;;7.50;99.90;;;;;;6181011;23;20170;-87
2022/01/09 12:47:53;;;;;;;23.87;5.00;;;7.50;99.90;;;;;;6181452;23;20166;-92
2022/01/09 12:50:27;;;;;;;19.50;5.20;;;7.50;99.90;;;;;;6181752;23;20182;-89
2022/01/09 12:53:12;;;;;;;21.50;4.30;;;7.40;99.90;;;;;;6181136;23;20170;-88
2022/01/09 12:55:54;;;;;;;19.53;4.20;;;7.40;99.90;;;;;;6180365;23;20177;-90
2022/01/09 12:58:24;;;;;;;15.03;3.33;;;7.40;99.90;;;;;;6177119;23;20171;-88
2022/01/09 13:00:50;;;;;;;21.57;4.67;;;7.40;99.90;;;;;;6181412;23;20901;-90